Time;durP1;ratioP1;P1;durP2;ratioP2;P2;SDS_P1;SDS_P2;PMS_P1;PMS_P2;Temp;Humidity;BMP_temperature;BMP_pressure;BME280_temperature;BME280_humidity;BME280_pressure;Samples;Min_cycle;Max_cycle;Signal;HPM_P1;HPM_P2
2022/11/24 00:02:00;;;;;;;33.30;17.00;;;;;;;0.96;77.37;97993.03;103332;1300;99312;-69
2022/11/24 00:04:33;;;;;;;31.40;17.30;;;;;;;0.97;77.47;97990.35;103345;1298;112738;-70
2022/11/24 00:07:05;;;;;;;31.70;16.90;;;;;;;0.97;77.36;97992.25;103322;1294;99255;-70
2022/11/24 00:09:36;;;;;;;33.50;17.10;;;;;;;0.96;77.16;97987.91;103259;1291;108344;-68
2022/11/24 00:12:04;;;;;;;30.80;16.40;;;;;;;0.97;77.44;97992.27;103255;1297;96527;-70
2022/11/24 00:14:32;;;;;;;30.70;16.00;;;;;;;0.96;77.42;97991.95;103456;1298;99186;-70
2022/11/24 00:17:01;;;;;;;32.70;16.60;;;;;;;0.94;77.29;97985.58;103403;1300;112195;-68
2022/11/24 00:19:34;;;;;;;31.00;16.60;;;;;;;0.95;77.21;97989.39;103327;1298;99320;-69
2022/11/24 00:22:02;;;;;;;29.30;15.00;;;;;;;0.96;77.37;97992.30;103341;1300;107305;-68
2022/11/24 00:24:30;;;;;;;31.10;16.80;;;;;;;0.95;76.98;97988.86;103241;1300;97896;-71
2022/11/24 00:27:03;;;;;;;29.90;16.50;;;;;;;0.95;77.35;97995.67;103286;1302;99101;-70
2022/11/24 00:29:30;;;;;;;29.60;15.90;;;;;;;0.95;77.11;98000.89;103319;1285;112651;-68
2022/11/24 00:31:58;;;;;;;29.10;15.30;;;;;;;0.94;77.45;98002.69;103427;1294;97583;-69
2022/11/24 00:34:29;;;;;;;34.00;16.80;;;;;;;0.94;77.26;98003.91;103351;1293;108437;-70
2022/11/24 00:37:02;;;;;;;33.80;16.60;;;;;;;0.95;77.35;98007.17;103406;1286;99211;-70
2022/11/24 00:39:30;;;;;;;32.10;16.20;;;;;;;0.96;77.45;98006.98;103295;1300;96553;-69
2022/11/24 00:41:58;;;;;;;33.20;16.70;;;;;;;0.96;77.55;98005.21;103290;1294;113061;-69
2022/11/24 00:44:29;;;;;;;36.20;18.60;;;;;;;0.97;77.38;98004.96;103468;1283;97146;-69
2022/11/24 00:47:02;;;;;;;36.50;18.60;;;;;;;0.98;77.51;98002.65;103309;1297;107815;-69
2022/11/24 00:49:35;;;;;;;35.20;18.10;;;;;;;0.99;77.34;97996.35;103424;1296;99284;-68
2022/11/24 00:52:07;;;;;;;37.40;19.10;;;;;;;0.99;77.29;97992.86;103299;1301;99292;-68
2022/11/24 00:54:35;;;;;;;35.80;19.40;;;;;;;0.99;77.43;97995.96;103383;1293;113218;-69
2022/11/24 00:57:03;;;;;;;39.90;20.30;;;;;;;1.00;77.33;97994.73;103441;1294;99354;-68
2022/11/24 00:59:32;;;;;;;41.10;22.10;;;;;;;1.00;77.49;97991.60;103465;1294;108121;-69
2022/11/24 01:02:00;;;;;;;40.70;21.30;;;;;;;1.00;77.40;97989.65;103290;1294;99358;-68
2022/11/24 01:04:31;;;;;;;39.90;20.50;;;;;;;1.00;77.30;97986.71;103364;1300;99203;-70
2022/11/24 01:07:04;;;;;;;41.70;21.30;;;;;;;1.00;77.28;97982.67;103447;1292;112539;-68
2022/11/24 01:09:32;;;;;;;46.90;24.30;;;;;;;1.01;77.72;97981.35;103433;1295;99272;-69
2022/11/24 01:12:05;;;;;;;43.10;23.10;;;;;;;1.02;77.43;97984.80;103245;1301;108177;-69
2022/11/24 01:14:33;;;;;;;41.40;21.00;;;;;;;1.03;77.45;97986.70;103334;1294;99301;-69
2022/11/24 01:17:06;;;;;;;38.60;19.30;;;;;;;1.04;77.44;97990.29;103448;1296;96520;-69
2022/11/24 01:19:37;;;;;;;44.30;21.20;;;;;;;1.05;77.48;97990.11;103297;1301;113565;-69
2022/11/24 01:22:05;;;;;;;40.80;20.40;;;;;;;1.06;77.44;97990.39;103372;1292;99739;-69
2022/11/24 01:24:33;;;;;;;36.60;19.20;;;;;;;1.05;77.38;97993.92;103373;1294;107232;-69
2022/11/24 01:27:10;;;;;;;36.90;19.80;;;;;;;1.05;77.47;97993.26;103501;1294;99226;-69
2022/11/24 01:29:38;;;;;;;36.20;19.60;;;;;;;1.05;77.49;97996.56;103344;1300;99190;-69
2022/11/24 01:32:06;;;;;;;35.80;18.80;;;;;;;1.05;77.41;97999.52;103262;1301;112533;-70
2022/11/24 01:34:34;;;;;;;35.80;18.40;;;;;;;1.05;77.35;98000.21;103462;1298;99391;-70
2022/11/24 01:37:06;;;;;;;33.70;17.80;;;;;;;1.06;77.46;98004.35;103468;1293;106555;-69
2022/11/24 01:39:37;;;;;;;34.60;17.90;;;;;;;1.07;77.62;98004.86;103325;1300;99262;-69
2022/11/24 01:42:10;;;;;;;34.20;17.50;;;;;;;1.07;77.61;98002.05;103485;1292;99258;-68
2022/11/24 01:44:44;;;;;;;30.90;16.90;;;;;;;1.08;77.38;98003.75;103357;1292;113153;-69
2022/11/24 01:47:41;;;;;;;30.40;16.40;;;;;;;1.09;77.54;97998.13;103407;1294;99153;-69
2022/11/24 01:50:17;;;;;;;30.50;16.10;;;;;;;1.07;77.59;97999.60;103326;1301;108128;-68
2022/11/24 01:52:55;;;;;;;29.40;16.00;;;;;;;1.06;77.58;98000.33;103232;1302;96536;-69
2022/11/24 01:55:34;;;;;;;29.60;15.70;;;;;;;1.07;77.59;98001.02;103294;1301;99226;-72
2022/11/24 01:58:25;;;;;;;30.60;16.20;;;;;;;1.08;77.45;98003.21;103276;1302;111592;-69
2022/11/24 02:00:58;;;;;;;30.60;15.40;;;;;;;1.08;77.49;98004.23;103337;1300;96700;-69
2022/11/24 02:03:34;;;;;;;31.30;17.20;;;;;;;1.09;77.70;98013.64;103412;1294;108210;-68
2022/11/24 02:06:14;;;;;;;27.70;14.20;;;;;;;1.09;77.65;98015.94;103458;1297;99307;-69
2022/11/24 02:09:07;;;;;;;30.80;15.40;;;;;;;1.09;77.68;98023.95;103297;1301;99341;-69
2022/11/24 02:11:43;;;;;;;30.50;16.10;;;;;;;1.08;77.35;98025.55;103339;1300;113245;-68
2022/11/24 02:14:18;;;;;;;29.50;16.30;;;;;;;1.08;77.66;98027.98;103337;1294;99214;-68
2022/11/24 02:16:52;;;;;;;30.20;15.90;;;;;;;1.08;77.37;98029.92;103236;1304;107574;-67
2022/11/24 02:19:47;;;;;;;30.40;15.00;;;;;;;1.08;77.52;98033.22;103391;1300;99214;-68
2022/11/24 02:22:43;;;;;;;32.30;16.00;;;;;;;1.08;77.45;98032.36;103350;1301;99236;-69
2022/11/24 02:25:26;;;;;;;30.40;16.30;;;;;;;1.08;77.39;98029.40;103482;1294;110884;-68
2022/11/24 02:27:58;;;;;;;29.00;15.40;;;;;;;1.08;77.58;98029.07;103288;1298;99104;-70
2022/11/24 02:30:26;;;;;;;28.20;15.30;;;;;;;1.07;77.30;98029.99;103399;1294;107559;-70
2022/11/24 02:32:54;;;;;;;28.10;15.20;;;;;;;1.05;77.45;98032.34;103300;1301;99192;-71
2022/11/24 02:35:32;;;;;;;30.00;17.00;;;;;;;1.06;77.68;98030.05;103377;1301;99323;-72
2022/11/24 02:38:00;;;;;;;29.20;15.50;;;;;;;1.07;77.28;98029.63;103326;1291;113148;-71
2022/11/24 02:40:33;;;;;;;28.90;15.10;;;;;;;1.08;77.58;98030.81;103428;1300;99291;-70
2022/11/24 02:43:08;;;;;;;29.30;14.80;;;;;;;1.08;77.57;98033.23;103463;1294;108048;-68
2022/11/24 02:45:36;;;;;;;27.80;15.70;;;;;;;1.08;77.59;98030.27;103378;1302;99200;-68
2022/11/24 02:48:07;;;;;;;29.20;15.20;;;;;;;1.08;77.42;98033.06;103467;1301;99467;-68
2022/11/24 02:50:36;;;;;;;27.70;15.20;;;;;;;1.09;77.70;98033.37;103357;1294;112495;-69
2022/11/24 02:53:03;;;;;;;30.60;16.00;;;;;;;1.10;77.80;98037.00;103319;1302;98301;-68
2022/11/24 02:55:31;;;;;;;28.70;14.70;;;;;;;1.09;77.59;98038.27;103284;1295;107496;-69
2022/11/24 02:58:00;;;;;;;28.40;14.70;;;;;;;1.07;77.39;98038.19;103289;1301;99229;-71
2022/11/24 03:00:28;;;;;;;29.20;14.30;;;;;;;1.06;77.45;98037.04;103244;1300;99334;-68
2022/11/24 03:03:03;;;;;;;26.90;13.50;;;;;;;1.02;77.42;98039.13;103203;1302;113198;-69
2022/11/24 03:05:31;;;;;;;27.20;14.40;;;;;;;0.97;77.22;98040.95;103221;1300;99337;-70
2022/11/24 03:08:00;;;;;;;26.90;13.50;;;;;;;0.95;77.27;98041.60;103202;1299;108270;-71
2022/11/24 03:10:33;;;;;;;29.20;14.30;;;;;;;0.96;77.35;98041.38;103238;1300;99262;-70
2022/11/24 03:13:00;;;;;;;30.30;15.40;;;;;;;0.97;77.43;98042.88;103183;1301;99327;-70
2022/11/24 03:15:28;;;;;;;28.20;13.70;;;;;;;0.97;77.40;98043.23;103301;1300;112489;-69
2022/11/24 03:17:57;;;;;;;25.20;13.60;;;;;;;0.98;77.48;98041.79;103344;1295;99211;-69
2022/11/24 03:20:29;;;;;;;28.40;14.20;;;;;;;0.97;77.47;98047.60;103273;1293;107548;-69
2022/11/24 03:22:57;;;;;;;28.80;14.70;;;;;;;0.95;77.16;98049.25;103183;1304;99437;-68
2022/11/24 03:25:25;;;;;;;27.00;14.20;;;;;;;0.95;77.19;98052.05;103259;1297;99344;-69
2022/11/24 03:27:58;;;;;;;27.30;14.40;;;;;;;0.93;77.40;98051.08;103187;1294;113127;-70
2022/11/24 03:30:26;;;;;;;27.00;13.60;;;;;;;0.93;77.45;98051.10;103245;1295;99503;-70
2022/11/24 03:32:54;;;;;;;27.00;13.90;;;;;;;0.90;77.49;98052.83;103251;1302;107281;-69
2022/11/24 03:35:26;;;;;;;27.00;14.10;;;;;;;0.89;77.44;98052.14;103253;1301;99290;-68
2022/11/24 03:37:54;;;;;;;21.10;10.60;;;;;;;0.91;77.47;98053.14;103237;1300;99464;-68
2022/11/24 03:40:22;;;;;;;27.90;13.70;;;;;;;0.92;77.52;98056.56;103251;1292;112560;-71
2022/11/24 03:42:50;;;;;;;28.20;14.30;;;;;;;0.93;77.66;98061.23;103246;1300;99204;-68
2022/11/24 03:45:19;;;;;;;26.40;14.10;;;;;;;0.94;77.54;98060.66;103211;1294;108171;-68
2022/11/24 03:48:07;;;;;;;25.80;13.40;;;;;;;0.95;77.15;98056.59;103188;1295;99319;-72
2022/11/24 03:50:35;;;;;;;27.90;13.50;;;;;;;0.96;77.47;98053.07;103260;1294;96898;-70
2022/11/24 03:53:03;;;;;;;26.20;13.30;;;;;;;0.97;77.40;98056.48;103245;1304;112600;-70
2022/11/24 03:55:36;;;;;;;27.40;13.50;;;;;;;0.98;77.42;98056.80;103229;1297;97043;-69
2022/11/24 03:58:04;;;;;;;33.10;15.50;;;;;;;0.98;77.29;98061.14;103329;1300;108261;-69
2022/11/24 04:00:32;;;;;;;30.10;14.00;;;;;;;0.98;77.40;98060.29;103332;1301;99648;-70
2022/11/24 04:03:00;;;;;;;33.10;15.10;;;;;;;0.98;77.33;98061.67;103298;1300;99424;-71
2022/11/24 04:05:38;;;;;;;32.80;15.40;;;;;;;0.99;77.41;98064.92;103268;1295;112512;-70
2022/11/24 04:08:06;;;;;;;33.80;15.90;;;;;;;1.01;77.16;98062.42;103290;1302;99043;-70
2022/11/24 04:10:38;;;;;;;33.20;15.30;;;;;;;1.03;77.38;98069.82;103212;1300;108074;-69
2022/11/24 04:13:16;;;;;;;31.40;15.00;;;;;;;1.04;77.32;98068.55;103362;1301;99306;-69
2022/11/24 04:15:49;;;;;;;45.50;20.30;;;;;;;1.02;77.44;98071.60;103304;1300;98023;-68
2022/11/24 04:18:22;;;;;;;45.70;20.20;;;;;;;0.97;77.26;98072.20;103324;1294;111095;-70
2022/11/24 04:20:55;;;;;;;59.80;25.90;;;;;;;0.95;77.22;98076.30;103335;1299;96894;-70
2022/11/24 04:23:22;;;;;;;29.40;14.60;;;;;;;0.97;77.34;98079.20;103355;1299;107018;-69
2022/11/24 04:25:50;;;;;;;34.00;16.40;;;;;;;0.96;77.36;98083.09;103370;1302;96732;-71
2022/11/24 04:28:18;;;;;;;32.70;16.40;;;;;;;0.93;77.26;98083.89;103414;1295;99222;-70
2022/11/24 04:30:46;;;;;;;31.10;15.70;;;;;;;0.89;77.21;98089.85;103361;1301;111242;-71
2022/11/24 04:33:14;;;;;;;36.20;17.20;;;;;;;0.85;77.03;98088.81;103347;1303;99279;-70
2022/11/24 04:35:42;;;;;;;32.80;15.90;;;;;;;0.85;77.07;98087.98;103373;1298;107355;-72
2022/11/24 04:38:10;;;;;;;35.80;17.30;;;;;;;0.84;77.30;98091.83;103364;1295;96542;-71
2022/11/24 04:40:38;;;;;;;35.10;18.40;;;;;;;0.79;77.17;98089.16;103346;1298;99221;-71
2022/11/24 04:43:06;;;;;;;36.00;16.70;;;;;;;0.74;77.01;98096.01;103351;1300;112542;-71
2022/11/24 04:45:34;;;;;;;34.70;17.20;;;;;;;0.73;77.30;98094.83;103309;1300;202498;-68
2022/11/24 04:48:09;;;;;;;39.80;18.10;;;;;;;0.71;77.14;98094.56;103248;1302;108188;-69
2022/11/24 04:50:40;;;;;;;41.40;17.00;;;;;;;0.63;77.07;98092.69;103094;1300;99325;-69
2022/11/24 04:53:13;;;;;;;35.00;16.40;;;;;;;0.54;77.06;98094.50;103186;1302;96661;-70
2022/11/24 04:55:46;;;;;;;36.20;16.60;;;;;;;0.48;77.19;98098.27;103250;1292;111898;-70
2022/11/24 04:58:14;;;;;;;34.20;16.30;;;;;;;0.44;77.20;98098.47;103229;1300;99229;-69
2022/11/24 05:00:42;;;;;;;36.40;17.60;;;;;;;0.44;77.40;98096.17;103197;1295;107549;-68
2022/11/24 05:03:10;;;;;;;37.20;17.50;;;;;;;0.45;77.24;98100.49;103173;1300;100384;-69
2022/11/24 05:05:39;;;;;;;40.50;19.20;;;;;;;0.47;77.26;98107.41;103254;1302;99259;-68
2022/11/24 05:08:08;;;;;;;39.30;20.10;;;;;;;0.45;77.31;98104.67;103195;1294;113205;-68
2022/11/24 05:10:36;;;;;;;44.70;22.20;;;;;;;0.44;77.30;98105.41;103192;1295;99257;-69
2022/11/24 05:13:16;;;;;;;45.70;21.20;;;;;;;0.43;77.35;98111.73;103211;1300;108130;-70
2022/11/24 05:15:43;;;;;;;45.20;22.00;;;;;;;0.44;77.31;98115.19;103260;1286;99373;-69
2022/11/24 05:18:17;;;;;;;43.50;22.00;;;;;;;0.45;77.53;98111.48;103292;1302;96548;-70
2022/11/24 05:20:45;;;;;;;40.00;19.70;;;;;;;0.48;77.40;98111.70;103289;1303;112428;-70
2022/11/24 05:23:17;;;;;;;44.50;21.50;;;;;;;0.49;77.44;98115.50;103352;1300;99355;-70
2022/11/24 05:25:46;;;;;;;42.90;19.50;;;;;;;0.50;77.29;98121.92;103270;1302;107607;-71
2022/11/24 05:28:16;;;;;;;37.90;17.80;;;;;;;0.48;77.24;98121.99;103262;1301;99229;-71
2022/11/24 05:30:47;;;;;;;42.50;19.40;;;;;;;0.48;77.41;98124.08;103255;1300;100306;-70
2022/11/24 05:33:17;;;;;;;35.70;17.70;;;;;;;0.44;77.44;98124.98;103244;1300;111612;-71
2022/11/24 05:35:52;;;;;;;37.30;17.10;;;;;;;0.39;77.20;98125.20;103208;1300;97071;-71
2022/11/24 05:38:25;;;;;;;35.10;15.80;;;;;;;0.36;77.40;98127.09;103204;1300;107600;-70
2022/11/24 05:40:53;;;;;;;35.10;17.30;;;;;;;0.34;77.29;98130.65;103199;1300;99095;-71
2022/11/24 05:43:21;;;;;;;37.40;17.40;;;;;;;0.35;77.34;98131.84;103291;1302;99297;-70
2022/11/24 05:45:49;;;;;;;37.20;18.30;;;;;;;0.37;77.40;98131.95;103256;1296;112207;-72
2022/11/24 05:48:19;;;;;;;36.40;17.20;;;;;;;0.36;77.30;98132.84;103205;1294;99285;-71
2022/11/24 05:50:56;;;;;;;39.00;17.90;;;;;;;0.34;77.28;98132.75;103372;1297;107516;-69
2022/11/24 05:53:25;;;;;;;36.40;16.70;;;;;;;0.29;77.10;98134.90;103302;1298;99207;-70
2022/11/24 05:56:05;;;;;;;;;;;;;;;0.27;77.30;98137.44;103451;1298;96529;-71
2022/11/24 05:58:33;;;;;;;37.10;18.00;;;;;;;0.27;77.43;98140.73;103350;1287;112431;-71
2022/11/24 06:01:09;;;;;;;39.40;18.10;;;;;;;0.29;77.41;98145.52;103289;1301;99262;-70
2022/11/24 06:03:36;;;;;;;44.00;20.40;;;;;;;0.33;77.52;98147.63;103311;1302;107489;-71
2022/11/24 06:06:04;;;;;;;40.80;19.00;;;;;;;0.37;77.64;98151.14;103381;1294;96888;-70
2022/11/24 06:08:34;;;;;;;41.90;19.60;;;;;;;0.39;77.61;98145.96;103397;1299;99309;-71
2022/11/24 06:11:17;;;;;;;44.90;19.20;;;;;;;0.41;77.60;98149.88;103345;1298;112590;-73
2022/11/24 06:13:50;;;;;;;43.40;20.10;;;;;;;0.39;77.49;98146.50;103400;1291;99192;-70
2022/11/24 06:16:18;;;;;;;45.70;21.10;;;;;;;0.40;77.49;98147.85;103257;1285;107435;-70
2022/11/24 06:18:46;;;;;;;47.40;21.20;;;;;;;0.40;77.46;98152.02;103333;1298;99713;-70
2022/11/24 06:21:16;;;;;;;49.00;21.40;;;;;;;0.41;77.43;98150.39;103352;1302;99204;-70
2022/11/24 06:23:49;;;;;;;45.80;19.10;;;;;;;0.41;77.41;98153.38;103369;1295;112580;-70
2022/11/24 06:26:19;;;;;;;42.30;19.10;;;;;;;0.37;77.29;98151.30;103383;1287;99743;-69
2022/11/24 06:28:46;;;;;;;47.10;21.50;;;;;;;0.37;77.61;98155.84;103323;1298;107542;-69
2022/11/24 06:31:15;;;;;;;45.80;18.70;;;;;;;0.37;77.42;98154.23;103327;1294;96640;-69
2022/11/24 06:33:43;;;;;;;45.00;19.50;;;;;;;0.35;77.22;98159.74;103362;1297;99355;-71
2022/11/24 06:36:17;;;;;;;43.10;19.40;;;;;;;0.29;77.33;98166.48;103264;1298;112321;-70
2022/11/24 06:38:45;;;;;;;44.80;19.00;;;;;;;0.31;77.59;98169.35;103402;1295;99211;-71
2022/11/24 06:41:19;;;;;;;45.30;21.20;;;;;;;0.35;77.54;98168.83;103282;1294;107549;-70
2022/11/24 06:43:47;;;;;;;40.50;18.90;;;;;;;0.37;77.59;98173.27;103337;1294;99321;-69
2022/11/24 06:46:15;;;;;;;36.90;16.90;;;;;;;0.33;77.43;98176.92;103348;1298;100001;-69
2022/11/24 06:48:43;;;;;;;34.80;15.10;;;;;;;0.29;77.28;98179.04;103291;1294;112101;-69
2022/11/24 06:51:11;;;;;;;31.90;15.40;;;;;;;0.23;77.34;98189.89;103397;1297;99348;-70
2022/11/24 06:53:44;;;;;;;31.10;14.30;;;;;;;0.23;77.57;98191.65;103362;1302;107308;-70
2022/11/24 06:56:19;;;;;;;28.30;12.60;;;;;;;0.23;77.56;98195.85;103344;1293;99591;-73
2022/11/24 06:58:54;;;;;;;32.90;15.20;;;;;;;0.21;77.35;98197.51;103424;1293;99341;-69
2022/11/24 07:01:28;;;;;;;36.50;16.30;;;;;;;0.22;77.49;98198.17;103351;1295;112239;-70
2022/11/24 07:03:59;;;;;;;33.10;16.10;;;;;;;0.21;77.36;98202.20;103310;1302;96661;-70
2022/11/24 07:06:27;;;;;;;47.70;23.00;;;;;;;0.23;77.61;98203.68;103367;1301;106660;-70
2022/11/24 07:08:55;;;;;;;42.10;22.00;;;;;;;0.28;77.61;98201.73;103349;1291;99205;-70
2022/11/24 07:11:27;;;;;;;31.80;14.50;;;;;;;0.32;77.57;98198.77;103330;1300;99325;-71
2022/11/24 07:14:00;;;;;;;31.90;14.60;;;;;;;0.35;77.62;98195.52;103305;1297;113297;-70
2022/11/24 07:16:30;;;;;;;33.20;15.20;;;;;;;0.33;77.34;98195.92;103393;1300;99294;-70
2022/11/24 07:19:00;;;;;;;33.50;16.80;;;;;;;0.30;77.38;98196.77;103294;1294;107279;-70
2022/11/24 07:21:30;;;;;;;31.10;14.70;;;;;;;0.24;77.25;98197.87;103368;1297;99127;-70
2022/11/24 07:23:58;;;;;;;29.20;14.80;;;;;;;0.23;77.34;98200.76;103379;1299;99232;-70
2022/11/24 07:26:35;;;;;;;31.70;15.80;;;;;;;0.23;77.46;98205.98;103446;1302;112424;-70
2022/11/24 07:29:04;;;;;;;30.50;15.80;;;;;;;0.23;77.44;98209.77;103400;1301;99227;-70
2022/11/24 07:31:36;;;;;;;31.20;15.00;;;;;;;0.26;77.57;98210.55;103397;1297;106497;-69
2022/11/24 07:34:05;;;;;;;31.00;15.60;;;;;;;0.29;77.70;98217.19;103439;1301;99696;-69
2022/11/24 07:36:37;;;;;;;32.50;15.80;;;;;;;0.33;77.44;98224.89;103366;1294;99394;-70
2022/11/24 07:39:14;;;;;;;32.40;15.10;;;;;;;0.36;77.61;98222.67;103387;1297;113305;-69
2022/11/24 07:41:42;;;;;;;34.60;14.80;;;;;;;0.39;77.60;98223.40;103403;1291;99773;-70
2022/11/24 07:44:10;;;;;;;32.80;15.80;;;;;;;0.38;77.47;98224.14;103377;1301;108224;-71
2022/11/24 07:46:37;;;;;;;30.60;14.40;;;;;;;0.40;77.69;98223.54;103387;1295;99291;-71
2022/11/24 07:49:05;;;;;;;29.70;14.00;;;;;;;0.39;77.50;98224.79;103533;1294;96551;-70
2022/11/24 07:51:35;;;;;;;29.30;14.10;;;;;;;0.38;77.49;98226.05;103382;1302;112216;-69
2022/11/24 07:54:03;;;;;;;31.10;15.10;;;;;;;0.37;77.41;98227.70;103328;1293;99308;-70
2022/11/24 07:56:31;;;;;;;27.00;13.70;;;;;;;0.38;77.33;98230.06;103392;1300;107504;-69
2022/11/24 07:58:59;;;;;;;30.90;15.50;;;;;;;0.41;77.71;98232.55;103339;1294;96607;-69
2022/11/24 08:01:31;;;;;;;28.20;14.10;;;;;;;0.42;77.63;98234.57;103342;1294;99319;-70
2022/11/24 08:04:04;;;;;;;29.80;14.90;;;;;;;0.44;77.52;98236.95;103484;1293;112472;-70
2022/11/24 08:06:32;;;;;;;29.40;13.40;;;;;;;0.43;77.49;98240.80;103422;1294;96549;-70
2022/11/24 08:09:09;;;;;;;29.20;14.90;;;;;;;0.43;77.51;98239.79;103400;1295;107415;-70
2022/11/24 08:11:36;;;;;;;30.70;15.10;;;;;;;0.48;77.57;98246.55;103423;1294;99641;-74
2022/11/24 08:14:04;;;;;;;27.70;13.50;;;;;;;0.53;77.49;98248.24;103465;1306;99088;-70
2022/11/24 08:16:32;;;;;;;26.70;12.20;;;;;;;0.54;77.40;98245.42;103442;1293;111667;-69
2022/11/24 08:19:00;;;;;;;26.20;12.60;;;;;;;0.54;77.57;98247.67;103338;1294;97719;-70
2022/11/24 08:21:28;;;;;;;28.20;13.00;;;;;;;0.54;77.55;98251.01;103345;1294;107254;-70
2022/11/24 08:24:00;;;;;;;30.00;14.40;;;;;;;0.52;77.47;98251.77;103357;1294;99274;-70
2022/11/24 08:26:28;;;;;;;35.10;18.80;;;;;;;0.52;77.41;98252.48;103432;1302;99229;-69
2022/11/24 08:29:02;;;;;;;31.90;16.50;;;;;;;0.57;77.38;98254.54;103447;1291;112393;-70
2022/11/24 08:31:32;;;;;;;30.30;14.60;;;;;;;0.63;77.57;98256.01;103300;1294;99187;-73
2022/11/24 08:34:09;;;;;;;28.80;13.20;;;;;;;0.64;77.40;98258.21;103346;1293;107355;-71
2022/11/24 08:36:37;;;;;;;22.20;10.90;;;;;;;0.65;77.36;98260.29;103326;1301;99214;-71
2022/11/24 08:39:05;;;;;;;28.80;13.80;;;;;;;0.66;77.44;98259.20;103301;1294;96594;-71
2022/11/24 08:41:33;;;;;;;27.20;13.40;;;;;;;0.67;77.60;98264.02;103402;1300;112474;-70
2022/11/24 08:44:01;;;;;;;29.70;14.40;;;;;;;0.69;77.37;98265.00;103337;1291;99231;-71
2022/11/24 08:46:29;;;;;;;33.20;14.20;;;;;;;0.70;77.30;98267.92;103432;1295;107448;-70
2022/11/24 08:48:57;;;;;;;32.40;14.30;;;;;;;0.73;77.36;98271.93;103485;1302;99280;-71
2022/11/24 08:51:30;;;;;;;30.90;12.70;;;;;;;0.76;77.44;98270.60;103393;1294;99348;-70
2022/11/24 08:54:03;;;;;;;25.40;12.50;;;;;;;0.78;77.50;98268.78;103268;1294;112495;-71
2022/11/24 08:56:36;;;;;;;27.90;13.20;;;;;;;0.76;77.38;98268.52;103373;1300;97097;-71
2022/11/24 08:59:04;;;;;;;29.40;14.50;;;;;;;0.77;77.29;98268.27;103303;1301;107486;-69
2022/11/24 09:01:32;;;;;;;29.50;14.00;;;;;;;0.80;77.48;98269.40;103341;1302;99302;-71
2022/11/24 09:04:04;;;;;;;31.50;15.00;;;;;;;0.84;77.62;98271.48;103368;1292;99316;-70
2022/11/24 09:06:32;;;;;;;33.00;15.00;;;;;;;0.86;77.70;98275.55;103384;1294;112713;-70
2022/11/24 09:09:05;;;;;;;29.30;13.80;;;;;;;0.92;77.74;98274.23;103336;1301;99341;-71
2022/11/24 09:11:33;;;;;;;29.40;13.70;;;;;;;0.97;77.81;98277.34;103525;1294;107401;-71
2022/11/24 09:14:06;;;;;;;22.00;10.90;;;;;;;1.01;77.66;98282.73;103522;1298;99088;-70
2022/11/24 09:16:39;;;;;;;28.10;14.00;;;;;;;1.04;77.78;98279.98;103309;1294;99185;-70
2022/11/24 09:19:07;;;;;;;29.30;15.00;;;;;;;1.06;77.49;98280.06;103299;1294;112517;-71
2022/11/24 09:21:39;;;;;;;29.10;15.30;;;;;;;1.04;77.71;98283.63;103352;1301;99286;-71
2022/11/24 09:24:15;;;;;;;30.50;16.60;;;;;;;1.02;77.55;98286.36;103381;1295;107658;-70
2022/11/24 09:26:43;;;;;;;28.50;15.10;;;;;;;1.02;77.58;98287.60;103488;1299;99247;-71
2022/11/24 09:29:19;;;;;;;29.80;14.90;;;;;;;1.03;77.53;98287.86;103312;1294;99323;-71
2022/11/24 09:31:47;;;;;;;35.70;17.30;;;;;;;1.09;77.85;98285.34;103376;1300;112602;-71
2022/11/24 09:34:19;;;;;;;29.30;14.70;;;;;;;1.13;77.59;98286.36;103463;1294;99344;-72
2022/11/24 09:36:48;;;;;;;31.30;15.50;;;;;;;1.19;77.49;98285.75;103346;1292;107337;-72
2022/11/24 09:39:20;;;;;;;31.50;13.90;;;;;;;1.23;77.79;98288.88;103326;1300;99258;-71
2022/11/24 09:42:33;;;;;;;29.70;14.40;;;;;;;1.26;77.55;98284.17;103328;1281;99234;-70
2022/11/24 09:45:15;;;;;;;28.80;14.00;;;;;;;1.26;77.25;98288.36;103260;1295;112489;-71
2022/11/24 09:48:36;;;;;;;28.00;13.90;;;;;;;1.29;77.60;98289.48;103361;1297;99220;-71
2022/11/24 09:51:10;;;;;;;29.20;14.80;;;;;;;1.30;77.36;98294.29;103273;1293;107525;-71
2022/11/24 09:53:51;;;;;;;29.80;14.60;;;;;;;1.30;77.62;98296.42;103300;1301;99156;-71
2022/11/24 09:56:34;;;;;;;31.90;15.30;;;;;;;1.31;77.10;98299.14;103409;1286;99229;-71
2022/11/24 09:59:16;;;;;;;30.00;14.40;;;;;;;1.32;77.42;98301.00;103403;1294;112286;-71
2022/11/24 10:01:51;;;;;;;29.90;14.60;;;;;;;1.33;77.51;98305.52;103280;1297;96552;-71
2022/11/24 10:04:41;;;;;;;32.00;15.90;;;;;;;1.33;77.37;98302.04;103438;1288;107160;-70
2022/11/24 10:07:40;;;;;;;29.50;16.10;;;;;;;1.35;77.50;98305.96;103311;1294;99307;-70
2022/11/24 10:10:21;;;;;;;32.80;16.10;;;;;;;1.35;77.51;98305.62;103319;1296;97806;-71
2022/11/24 10:13:34;;;;;;;30.20;15.70;;;;;;;1.36;77.59;98304.86;103467;1292;112479;-71
2022/11/24 10:16:41;;;;;;;30.00;15.20;;;;;;;1.41;77.42;98306.06;103359;1288;96548;-72
2022/11/24 10:19:45;;;;;;;26.40;13.50;;;;;;;1.42;77.45;98305.63;103386;1293;107001;-71
2022/11/24 10:22:55;;;;;;;28.50;13.70;;;;;;;1.36;77.20;98301.72;103465;1298;96487;-71
2022/11/24 10:25:51;;;;;;;28.00;13.20;;;;;;;1.31;77.30;98297.58;103327;1301;99324;-70
2022/11/24 10:28:19;;;;;;;28.30;13.60;;;;;;;1.31;77.14;98301.80;103334;1294;112514;-71
2022/11/24 10:31:03;;;;;;;26.80;13.20;;;;;;;1.32;77.34;98298.92;103499;1298;96695;-71
2022/11/24 10:33:36;;;;;;;26.30;12.50;;;;;;;1.37;77.36;98302.02;103389;1294;107158;-71
2022/11/24 10:36:40;;;;;;;23.50;10.80;;;;;;;1.39;77.09;98302.66;103309;1300;99239;-72
2022/11/24 10:39:26;;;;;;;27.00;12.80;;;;;;;1.41;77.19;98302.21;103287;1297;99384;-71
2022/11/24 10:42:19;;;;;;;27.50;12.90;;;;;;;1.45;77.54;98303.90;103337;1298;112155;-70
2022/11/24 10:45:00;;;;;;;24.40;12.20;;;;;;;1.51;77.65;98301.72;103551;1284;96582;-73
2022/11/24 10:47:33;;;;;;;25.80;12.70;;;;;;;1.52;77.44;98303.41;103401;1293;107479;-71
2022/11/24 10:50:23;;;;;;;26.00;12.70;;;;;;;1.52;77.27;98301.67;103354;1285;99315;-73
2022/11/24 10:53:16;;;;;;;25.30;12.30;;;;;;;1.56;77.21;98307.45;103314;1301;99288;-73
2022/11/24 10:55:52;;;;;;;30.50;12.80;;;;;;;1.60;77.32;98312.13;103542;1298;112218;-70
2022/11/24 10:58:34;;;;;;;24.80;11.90;;;;;;;1.63;77.46;98312.87;103340;1293;96635;-71
2022/11/24 11:01:12;;;;;;;28.70;15.10;;;;;;;1.68;77.46;98312.42;103308;1298;107213;-71
2022/11/24 11:03:54;;;;;;;26.50;14.20;;;;;;;1.74;77.55;98313.37;103424;1299;98295;-72
2022/11/24 11:06:31;;;;;;;26.70;13.50;;;;;;;1.73;77.60;98314.10;103286;1294;99430;-72
2022/11/24 11:09:05;;;;;;;27.90;13.90;;;;;;;1.72;77.45;98312.59;103371;1295;112331;-71
2022/11/24 11:11:42;;;;;;;26.40;13.50;;;;;;;1.76;77.69;98307.66;103589;1285;99717;-69
2022/11/24 11:14:11;;;;;;;27.90;13.80;;;;;;;1.83;77.31;98308.24;103554;1297;107509;-71
2022/11/24 11:16:52;;;;;;;;;;;;;;;1.88;77.68;98309.38;103486;1298;99139;-71
2022/11/24 11:19:48;;;;;;;28.00;14.50;;;;;;;1.91;77.33;98306.40;103455;1292;99894;-70
2022/11/24 11:22:27;;;;;;;28.50;14.90;;;;;;;1.93;77.56;98308.95;103419;1302;112579;-71
2022/11/24 11:25:10;;;;;;;30.20;15.30;;;;;;;1.89;77.46;98312.81;103433;1293;99306;-71
2022/11/24 11:27:44;;;;;;;28.70;15.10;;;;;;;1.90;77.22;98319.08;103370;1295;107275;-71
2022/11/24 11:30:11;;;;;;;;;;;;;;;1.90;77.54;98318.20;103431;1295;99229;-71
2022/11/24 11:33:21;;;;;;;28.30;14.30;;;;;;;1.91;77.57;98319.56;103359;1294;100027;-71
2022/11/24 11:36:14;;;;;;;27.90;13.80;;;;;;;1.89;77.47;98321.20;103411;1302;112418;-71
2022/11/24 11:38:47;;;;;;;29.00;15.10;;;;;;;1.89;77.42;98317.88;103339;1302;99350;-71
2022/11/24 11:41:28;;;;;;;27.50;15.20;;;;;;;1.92;77.53;98317.19;103296;1297;106552;-71
2022/11/24 11:44:24;;;;;;;27.30;13.80;;;;;;;1.93;77.36;98318.02;103371;1294;99895;-71